createdAt,value
2023-01-13T00:00:23.072Z,15.32
2023-01-13T00:02:50.864Z,22.20
2023-01-13T00:05:18.779Z,16.08
2023-01-13T00:07:46.933Z,21.13
2023-01-13T00:10:14.807Z,9.57
2023-01-13T00:12:42.866Z,23.23
2023-01-13T00:15:11.407Z,18.80
2023-01-13T00:17:39.395Z,23.50
2023-01-13T00:20:07.999Z,20.77
2023-01-13T00:22:36.058Z,20.38
2023-01-13T00:25:04.792Z,13.52
2023-01-13T00:27:32.828Z,18.35
2023-01-13T00:30:00.708Z,13.18
2023-01-13T00:32:28.816Z,22.27
2023-01-13T00:34:56.655Z,16.00
2023-01-13T00:37:24.585Z,21.23
2023-01-13T00:39:53.127Z,31.05
2023-01-13T00:42:39.233Z,25.77
2023-01-13T00:45:07.556Z,51.70
2023-01-13T00:47:35.489Z,72.85
2023-01-13T00:50:03.325Z,45.28
2023-01-13T00:52:32.995Z,34.83
2023-01-13T00:55:01.513Z,56.70
2023-01-13T00:57:29.388Z,18.10
2023-01-13T00:59:57.201Z,66.22
2023-01-13T01:02:25.111Z,66.75
2023-01-13T01:04:52.974Z,65.18
2023-01-13T01:07:20.773Z,52.35
2023-01-13T01:09:48.693Z,47.53
2023-01-13T01:12:16.707Z,45.53
2023-01-13T01:14:44.981Z,19.33
2023-01-13T01:17:12.819Z,24.92
2023-01-13T01:19:40.817Z,35.85
2023-01-13T01:22:08.607Z,39.35
2023-01-13T01:24:36.516Z,18.20
2023-01-13T01:27:04.235Z,21.75
2023-01-13T01:29:32.086Z,31.67
2023-01-13T01:31:59.986Z,29.70
2023-01-13T01:34:27.801Z,26.88
2023-01-13T01:36:55.676Z,26.58
2023-01-13T01:39:23.557Z,23.92
2023-01-13T01:42:09.582Z,40.15
2023-01-13T01:44:43.282Z,35.47
2023-01-13T01:47:15.589Z,14.02
2023-01-13T01:49:43.405Z,15.93
2023-01-13T01:52:12.375Z,35.47
2023-01-13T01:54:53.460Z,27.90
2023-01-13T01:57:27.890Z,30.27
2023-01-13T01:59:55.672Z,30.25
2023-01-13T02:02:23.791Z,32.72
2023-01-13T02:04:52.625Z,28.30
2023-01-13T02:07:32.114Z,31.15
2023-01-13T02:10:02.505Z,22.05
2023-01-13T02:12:30.335Z,36.92
2023-01-13T02:15:02.661Z,27.30
2023-01-13T02:18:02.509Z,18.08
2023-01-13T02:20:33.327Z,39.45
2023-01-13T02:23:44.539Z,22.10
2023-01-13T02:26:33.336Z,24.88
2023-01-13T02:29:57.236Z,32.88
2023-01-13T02:32:31.608Z,16.35
2023-01-13T02:35:09.056Z,16.30
2023-01-13T02:37:38.168Z,34.15
2023-01-13T02:40:17.869Z,28.63
2023-01-13T02:43:11.344Z,56.30
2023-01-13T02:45:42.835Z,60.85
2023-01-13T02:48:10.663Z,49.97
2023-01-13T02:50:59.486Z,76.22
2023-01-13T02:53:34.961Z,70.07
2023-01-13T02:56:03.911Z,66.13
2023-01-13T02:58:32.671Z,89.85
2023-01-13T03:01:00.580Z,71.13
2023-01-13T03:03:28.448Z,70.18
2023-01-13T03:06:07.172Z,78.55
2023-01-13T03:08:43.313Z,53.60
2023-01-13T03:11:15.270Z,69.82
2023-01-13T03:14:04.306Z,78.93
2023-01-13T03:16:38.789Z,66.05
2023-01-13T03:19:09.116Z,83.50
2023-01-13T03:21:55.813Z,82.38
2023-01-13T03:24:30.135Z,76.57
2023-01-13T03:27:02.614Z,84.07
2023-01-13T03:29:39.275Z,95.32
2023-01-13T03:32:25.479Z,82.93
2023-01-13T03:35:10.500Z,85.75
2023-01-13T03:37:40.298Z,84.70
2023-01-13T03:40:11.980Z,78.18
2023-01-13T03:42:39.778Z,63.88
2023-01-13T03:45:11.104Z,44.55
2023-01-13T03:47:55.515Z,79.32
2023-01-13T03:50:26.248Z,72.70
2023-01-13T03:52:59.563Z,76.25
2023-01-13T03:55:29.555Z,56.60
2023-01-13T03:58:03.568Z,68.95
2023-01-13T04:00:34.701Z,54.47
2023-01-13T04:03:07.953Z,45.97
2023-01-13T04:05:36.792Z,25.75
2023-01-13T04:08:20.728Z,46.83
2023-01-13T04:10:54.168Z,64.97
2023-01-13T04:13:23.322Z,68.68
2023-01-13T04:15:51.102Z,83.72
2023-01-13T04:18:24.064Z,78.38
2023-01-13T04:20:53.007Z,23.30
2023-01-13T04:23:21.461Z,51.92
2023-01-13T04:25:49.473Z,61.00
2023-01-13T04:28:17.484Z,62.65
2023-01-13T04:30:45.582Z,53.03
2023-01-13T04:33:13.957Z,40.08
2023-01-13T04:35:42.112Z,54.53
2023-01-13T04:38:16.406Z,70.70
2023-01-13T04:40:44.380Z,46.78
2023-01-13T04:43:12.321Z,52.03
2023-01-13T04:45:40.066Z,62.10
2023-01-13T04:48:07.847Z,57.60
2023-01-13T04:50:36.296Z,42.65
2023-01-13T04:53:04.269Z,71.30
2023-01-13T04:55:32.585Z,69.03
2023-01-13T04:58:05.800Z,43.78
2023-01-13T05:00:33.700Z,42.13
2023-01-13T05:03:01.682Z,19.45
2023-01-13T05:05:29.898Z,54.00
2023-01-13T05:07:58.354Z,49.55
2023-01-13T05:10:26.582Z,30.73
2023-01-13T05:13:12.525Z,45.13
2023-01-13T05:15:59.682Z,36.58
2023-01-13T05:18:28.365Z,40.38
2023-01-13T05:20:56.206Z,16.42
2023-01-13T05:23:42.666Z,21.98
2023-01-13T05:26:10.495Z,38.58
2023-01-13T05:28:38.182Z,31.08
2023-01-13T05:31:06.120Z,38.33
2023-01-13T05:33:35.740Z,38.75
2023-01-13T05:36:04.207Z,41.28
2023-01-13T05:38:31.989Z,36.85
2023-01-13T05:41:19.012Z,41.45
2023-01-13T05:43:47.061Z,41.95
2023-01-13T05:46:15.280Z,31.83
2023-01-13T05:48:43.436Z,35.13
2023-01-13T05:51:12.222Z,31.92
2023-01-13T05:53:43.141Z,34.15
2023-01-13T05:56:11.389Z,37.03
2023-01-13T05:58:39.520Z,35.70
2023-01-13T06:01:08.852Z,39.72
2023-01-13T06:03:36.882Z,33.58
2023-01-13T06:06:04.832Z,29.15
2023-01-13T06:08:32.865Z,32.60
2023-01-13T06:11:00.766Z,40.13
2023-01-13T06:13:28.614Z,25.38
2023-01-13T06:15:58.160Z,32.85
2023-01-13T06:18:26.210Z,35.97
2023-01-13T06:20:54.090Z,34.22
2023-01-13T06:23:21.960Z,34.85
2023-01-13T06:26:16.001Z,22.65
2023-01-13T06:28:44.160Z,17.30
2023-01-13T06:31:12.376Z,25.42
2023-01-13T06:33:43.392Z,28.55
2023-01-13T06:36:14.113Z,28.23
2023-01-13T06:38:44.069Z,35.00
2023-01-13T06:41:12.396Z,30.55
2023-01-13T06:43:40.319Z,33.90
2023-01-13T06:46:08.757Z,29.42
2023-01-13T06:48:36.561Z,32.80
2023-01-13T06:51:05.606Z,26.73
2023-01-13T06:53:33.597Z,31.23
2023-01-13T06:56:01.455Z,28.95
2023-01-13T06:58:29.296Z,28.05
2023-01-13T07:01:00.808Z,29.80
2023-01-13T07:03:28.792Z,27.17
2023-01-13T07:05:56.954Z,32.00
2023-01-13T07:08:24.949Z,33.10
2023-01-13T07:10:53.477Z,32.63
2023-01-13T07:13:40.063Z,29.40
2023-01-13T07:16:08.908Z,31.42
2023-01-13T07:18:36.874Z,36.60
2023-01-13T07:21:08.974Z,32.30
2023-01-13T07:23:41.040Z,32.35
2023-01-13T07:26:09.434Z,30.40
2023-01-13T07:28:37.399Z,37.03
2023-01-13T07:31:05.934Z,43.90
2023-01-13T07:33:33.863Z,37.80
2023-01-13T07:36:03.421Z,34.03
2023-01-13T07:38:31.403Z,34.97
2023-01-13T07:41:19.192Z,44.03
2023-01-13T07:43:47.048Z,47.75
2023-01-13T07:46:14.972Z,62.80
2023-01-13T07:48:42.887Z,63.92
2023-01-13T07:51:11.446Z,64.30
2023-01-13T07:53:39.293Z,71.20
2023-01-13T07:56:07.820Z,65.00
2023-01-13T07:58:36.305Z,46.35
2023-01-13T08:01:11.319Z,60.35
2023-01-13T08:03:39.896Z,29.33
2023-01-13T08:06:07.898Z,22.48
2023-01-13T08:08:35.837Z,41.80
2023-01-13T08:11:04.912Z,44.03
2023-01-13T08:13:32.812Z,42.22
2023-01-13T08:16:02.257Z,35.72
2023-01-13T08:18:30.267Z,32.80
2023-01-13T08:21:01.281Z,39.33
2023-01-13T08:23:29.145Z,39.75
2023-01-13T08:26:01.863Z,38.63
2023-01-13T08:28:29.886Z,34.00
2023-01-13T08:31:05.057Z,31.27
2023-01-13T08:33:33.215Z,31.70
2023-01-13T08:36:06.924Z,24.38
2023-01-13T08:38:35.318Z,30.77
2023-01-13T08:41:09.221Z,29.20
2023-01-13T08:43:37.000Z,20.15
2023-01-13T08:46:05.136Z,14.77
2023-01-13T08:48:33.213Z,13.77
2023-01-13T08:51:05.795Z,14.90
2023-01-13T08:56:01.149Z,8.90
2023-01-13T08:58:29.077Z,14.45
2023-01-13T09:00:57.301Z,14.75
2023-01-13T09:03:25.347Z,13.07
2023-01-13T09:05:53.183Z,14.60
2023-01-13T09:08:21.884Z,12.20
2023-01-13T09:10:49.932Z,12.20
2023-01-13T09:13:17.772Z,13.35
2023-01-13T09:15:46.255Z,15.65
2023-01-13T09:18:14.126Z,15.38
2023-01-13T09:20:42.190Z,11.80
2023-01-13T09:23:11.145Z,7.07
2023-01-13T09:25:39.986Z,12.30
2023-01-13T09:28:08.921Z,14.43
2023-01-13T09:30:37.713Z,13.82
2023-01-13T09:33:23.721Z,10.23
2023-01-13T09:35:51.727Z,10.30
2023-01-13T09:38:19.589Z,12.77
2023-01-13T09:40:48.384Z,12.70
2023-01-13T09:43:42.880Z,11.60
2023-01-13T09:46:47.561Z,10.15
2023-01-13T09:49:22.686Z,12.77
2023-01-13T09:51:59.563Z,10.50
2023-01-13T09:54:42.684Z,9.30
2023-01-13T09:57:17.806Z,13.73
2023-01-13T09:59:45.731Z,15.27
2023-01-13T10:02:34.653Z,15.68
2023-01-13T10:05:32.813Z,14.98
2023-01-13T10:08:05.723Z,15.75
2023-01-13T10:10:54.177Z,14.23
2023-01-13T10:13:30.668Z,7.93
2023-01-13T10:16:06.008Z,17.08
2023-01-13T10:18:38.335Z,15.73
2023-01-13T10:21:17.819Z,19.38
2023-01-13T10:24:09.424Z,13.63
2023-01-13T10:26:37.096Z,6.63
2023-01-13T10:29:25.429Z,7.43
2023-01-13T10:31:54.418Z,5.80
2023-01-13T10:34:23.020Z,5.95
2023-01-13T10:37:06.857Z,4.78
2023-01-13T10:39:45.741Z,6.15
2023-01-13T10:42:22.460Z,5.10
2023-01-13T10:44:54.359Z,8.55
2023-01-13T10:47:27.679Z,7.28
2023-01-13T10:50:13.403Z,8.05
2023-01-13T10:52:43.959Z,9.55
2023-01-13T10:55:32.434Z,8.43
2023-01-13T10:58:19.388Z,11.48
2023-01-13T11:00:47.481Z,8.38
2023-01-13T11:03:24.832Z,10.88
2023-01-13T11:05:59.829Z,11.10
2023-01-13T11:08:29.670Z,8.05
2023-01-13T11:10:59.264Z,9.07
2023-01-13T11:13:35.247Z,9.82
2023-01-13T11:16:05.883Z,9.35
2023-01-13T11:19:12.382Z,12.88
2023-01-13T11:22:20.837Z,12.60
2023-01-13T11:24:54.821Z,10.25
2023-01-13T11:27:32.028Z,14.65
2023-01-13T11:30:26.477Z,17.50
2023-01-13T11:33:16.110Z,13.48
2023-01-13T11:36:02.359Z,6.90
2023-01-13T11:38:54.487Z,8.75
2023-01-13T11:41:33.133Z,18.03
2023-01-13T11:44:31.574Z,16.48
2023-01-13T11:46:59.377Z,14.63
2023-01-13T11:49:50.235Z,17.67
2023-01-13T11:52:35.684Z,15.07
2023-01-13T11:55:22.848Z,17.25
2023-01-13T11:58:33.807Z,18.42
2023-01-13T12:01:23.029Z,17.02
2023-01-13T12:04:08.635Z,16.63
2023-01-13T12:06:38.626Z,16.65
2023-01-13T12:09:46.758Z,12.68
2023-01-13T12:12:20.507Z,9.35
2023-01-13T12:14:55.982Z,15.10
2023-01-13T12:17:32.170Z,14.90
2023-01-13T12:19:59.861Z,15.73
2023-01-13T12:22:29.853Z,12.95
2023-01-13T12:25:06.436Z,13.98
2023-01-13T12:27:57.116Z,12.90
2023-01-13T12:30:28.430Z,14.75
2023-01-13T12:32:59.574Z,10.25
2023-01-13T12:35:39.724Z,13.77
2023-01-13T12:38:23.460Z,10.32
2023-01-13T12:41:09.816Z,13.63
2023-01-13T12:43:56.466Z,6.57
2023-01-13T12:46:24.915Z,11.65
2023-01-13T12:48:57.129Z,8.45
2023-01-13T12:51:38.373Z,12.90
2023-01-13T12:54:38.278Z,9.25
2023-01-13T12:57:26.712Z,11.88
2023-01-13T13:00:00.752Z,13.45
2023-01-13T13:02:33.391Z,14.00
2023-01-13T13:07:50.148Z,17.13
2023-01-13T13:10:32.183Z,19.83
2023-01-13T13:13:18.928Z,19.93
2023-01-13T13:15:50.717Z,13.25
2023-01-13T13:18:18.534Z,9.45
2023-01-13T13:21:09.335Z,8.13
2023-01-13T13:23:48.360Z,7.07
2023-01-13T13:26:23.276Z,6.45
2023-01-13T13:29:29.559Z,5.97
2023-01-13T13:32:31.525Z,6.40
2023-01-13T13:35:21.431Z,5.30
2023-01-13T13:38:32.082Z,7.50
2023-01-13T13:41:18.308Z,7.93
2023-01-13T13:44:04.985Z,7.40
2023-01-13T13:46:49.342Z,6.68
2023-01-13T13:49:22.258Z,5.15
2023-01-13T13:52:05.141Z,5.82
2023-01-13T13:57:01.459Z,6.65
2023-01-13T13:59:34.036Z,7.53
2023-01-13T14:04:34.136Z,6.82
2023-01-13T14:07:21.029Z,9.33
2023-01-13T14:09:51.385Z,28.70
2023-01-13T14:12:27.419Z,38.35
2023-01-13T14:14:57.963Z,40.42
2023-01-13T14:17:27.450Z,41.40
2023-01-13T14:20:02.859Z,44.45
2023-01-13T14:22:30.651Z,39.63
2023-01-13T14:24:58.879Z,44.58
2023-01-13T14:27:28.092Z,44.10
2023-01-13T14:29:56.855Z,42.38
2023-01-13T14:32:28.923Z,44.92
2023-01-13T14:34:56.750Z,45.88
2023-01-13T14:37:39.710Z,40.63
2023-01-13T14:40:36.557Z,29.08
2023-01-13T14:43:10.874Z,37.78
2023-01-13T14:45:38.823Z,37.35
2023-01-13T14:48:08.826Z,24.95
2023-01-13T14:50:36.810Z,27.30
2023-01-13T14:53:05.566Z,27.80
2023-01-13T14:55:34.286Z,25.63
2023-01-13T14:58:37.753Z,22.55
2023-01-13T15:01:29.538Z,12.15
2023-01-13T15:04:17.313Z,10.55
2023-01-13T15:06:48.783Z,8.77
2023-01-13T15:09:23.773Z,5.78
2023-01-13T15:11:54.718Z,3.60
2023-01-13T15:14:32.049Z,4.25
2023-01-13T15:16:59.921Z,5.68
2023-01-13T15:19:27.725Z,6.15
2023-01-13T15:21:55.536Z,5.82
2023-01-13T15:24:23.558Z,5.57
2023-01-13T15:26:51.521Z,5.95
2023-01-13T15:29:20.892Z,8.25
2023-01-13T15:31:48.809Z,6.72
2023-01-13T15:34:16.572Z,7.80
2023-01-13T15:36:44.516Z,9.60
2023-01-13T15:39:12.309Z,4.97
2023-01-13T15:41:58.558Z,6.50
2023-01-13T15:44:46.134Z,6.55
2023-01-13T15:47:14.834Z,7.35
2023-01-13T15:49:45.915Z,6.38
2023-01-13T15:52:22.628Z,5.40
2023-01-13T15:54:51.204Z,4.18
2023-01-13T15:57:33.173Z,4.47
2023-01-13T16:00:27.239Z,3.93
2023-01-13T16:02:55.130Z,2.90
2023-01-13T16:05:23.070Z,3.22
2023-01-13T16:07:50.906Z,3.63
2023-01-13T16:10:26.619Z,5.60
2023-01-13T16:12:56.228Z,4.88
2023-01-13T16:15:25.316Z,5.75
2023-01-13T16:18:01.025Z,5.53
2023-01-13T16:20:29.080Z,6.05
2023-01-13T16:22:57.030Z,6.78
2023-01-13T16:25:26.491Z,7.90
2023-01-13T16:27:54.554Z,6.10
2023-01-13T16:30:29.822Z,4.70
2023-01-13T16:32:58.049Z,5.88
2023-01-13T16:35:25.989Z,2.92
2023-01-13T16:37:54.442Z,4.25
2023-01-13T16:40:25.403Z,4.28
2023-01-13T16:42:53.410Z,3.67
2023-01-13T16:45:21.241Z,3.30
2023-01-13T16:47:49.268Z,2.38
2023-01-13T16:50:34.552Z,3.13
2023-01-13T16:53:03.482Z,3.90
2023-01-13T16:55:31.253Z,3.00
2023-01-13T16:57:59.142Z,2.92
2023-01-13T17:00:27.046Z,3.13
2023-01-13T17:02:54.801Z,3.15
2023-01-13T17:05:22.595Z,6.20
2023-01-13T17:07:50.264Z,4.80
2023-01-13T17:10:23.373Z,4.95
2023-01-13T17:12:51.187Z,1.63
2023-01-13T17:15:19.547Z,3.42
2023-01-13T17:17:49.255Z,3.10
2023-01-13T17:20:17.061Z,1.67
2023-01-13T17:22:47.511Z,2.17
2023-01-13T17:25:17.709Z,2.75
2023-01-13T17:27:45.460Z,2.25
2023-01-13T17:30:16.243Z,2.90
2023-01-13T17:32:44.076Z,2.60
2023-01-13T17:35:13.735Z,1.92
2023-01-13T17:37:41.643Z,2.42
2023-01-13T17:40:10.410Z,2.95
2023-01-13T17:42:38.320Z,2.45
2023-01-13T17:45:07.428Z,2.28
2023-01-13T17:47:35.354Z,2.78
2023-01-13T17:50:04.557Z,2.22
2023-01-13T17:52:32.316Z,3.03
2023-01-13T17:55:00.183Z,2.58
2023-01-13T17:57:28.138Z,2.40
2023-01-13T17:59:55.892Z,1.95
2023-01-13T18:02:23.596Z,2.67
2023-01-13T18:04:51.422Z,2.58
2023-01-13T18:07:19.180Z,2.20
2023-01-13T18:09:47.053Z,2.50
2023-01-13T18:12:15.026Z,2.28
2023-01-13T18:14:43.008Z,2.10
2023-01-13T18:17:11.032Z,2.17
2023-01-13T18:19:56.824Z,2.25
2023-01-13T18:22:42.854Z,2.20
2023-01-13T18:25:32.564Z,2.60
2023-01-13T18:28:02.986Z,3.30
2023-01-13T18:30:30.990Z,3.40
2023-01-13T18:32:58.947Z,3.20
2023-01-13T18:35:26.911Z,3.67
2023-01-13T18:37:54.741Z,2.45
2023-01-13T18:40:22.701Z,2.17
2023-01-13T18:42:54.721Z,3.08
2023-01-13T18:45:27.668Z,1.80
2023-01-13T18:50:23.914Z,2.33
2023-01-13T18:52:51.920Z,2.20
2023-01-13T18:55:19.795Z,2.05
2023-01-13T18:57:47.723Z,2.08
2023-01-13T19:00:17.784Z,1.90
2023-01-13T19:02:47.635Z,1.67
2023-01-13T19:05:15.424Z,1.65
2023-01-13T19:07:46.771Z,2.20
2023-01-13T19:10:14.786Z,2.10
2023-01-13T19:12:42.662Z,2.03
2023-01-13T19:15:10.988Z,2.33
2023-01-13T19:17:38.850Z,2.00
2023-01-13T19:20:07.174Z,2.20
2023-01-13T19:22:35.309Z,2.10
2023-01-13T19:25:03.508Z,1.90
2023-01-13T19:27:31.522Z,2.38
2023-01-13T19:30:01.482Z,2.00
2023-01-13T19:32:32.715Z,2.10
2023-01-13T19:35:01.358Z,1.85
2023-01-13T19:37:30.696Z,1.70
2023-01-13T19:40:01.781Z,1.95
2023-01-13T19:42:47.873Z,2.20
2023-01-13T19:45:28.092Z,2.22
2023-01-13T19:47:56.391Z,1.33
2023-01-13T19:50:24.764Z,1.40
2023-01-13T19:52:52.617Z,1.23
2023-01-13T19:55:20.295Z,1.25
2023-01-13T19:57:48.177Z,1.13
2023-01-13T20:00:20.883Z,1.77
2023-01-13T20:02:49.948Z,1.40
2023-01-13T20:05:21.563Z,1.80
2023-01-13T20:07:50.489Z,1.37
2023-01-13T20:10:19.551Z,1.90
2023-01-13T20:12:47.353Z,1.67
2023-01-13T20:15:15.367Z,2.25
2023-01-13T20:17:43.160Z,1.88
2023-01-13T20:20:12.288Z,1.95
2023-01-13T20:22:40.361Z,1.70
2023-01-13T20:25:09.061Z,1.90
2023-01-13T20:27:37.098Z,1.20
2023-01-13T20:30:06.194Z,1.35
2023-01-13T20:32:33.830Z,1.17
2023-01-13T20:35:01.545Z,1.20
2023-01-13T20:37:29.318Z,0.75
2023-01-13T20:39:58.549Z,1.23
2023-01-13T20:42:44.614Z,1.10
2023-01-13T20:45:21.997Z,1.10
2023-01-13T20:47:49.855Z,1.42
2023-01-13T20:50:17.867Z,1.13
2023-01-13T20:52:45.766Z,1.33
2023-01-13T20:55:13.965Z,1.27
2023-01-13T20:57:42.303Z,1.70
2023-01-13T21:00:10.959Z,1.35
2023-01-13T21:02:40.046Z,1.50
2023-01-13T21:05:08.447Z,1.80
2023-01-13T21:07:36.193Z,1.77
2023-01-13T21:10:04.446Z,1.58
2023-01-13T21:12:50.258Z,1.58
2023-01-13T21:15:18.000Z,1.77
2023-01-13T21:18:04.965Z,1.52
2023-01-13T21:20:34.286Z,1.23
2023-01-13T21:23:02.759Z,0.68
2023-01-13T21:25:31.280Z,1.17
2023-01-13T21:28:04.617Z,0.60
2023-01-13T21:30:32.986Z,1.27
2023-01-13T21:33:01.199Z,1.45
2023-01-13T21:35:28.880Z,1.73
2023-01-13T21:37:56.682Z,1.52
2023-01-13T21:40:24.454Z,1.80
2023-01-13T21:43:10.554Z,0.50
2023-01-13T21:45:57.910Z,1.40
2023-01-13T21:48:25.872Z,0.90
2023-01-13T21:50:53.722Z,1.10
2023-01-13T21:53:21.492Z,1.38
2023-01-13T21:55:54.875Z,1.70
2023-01-13T21:58:22.669Z,1.42
2023-01-13T22:00:50.584Z,1.75
2023-01-13T22:03:19.146Z,1.50
2023-01-13T22:05:47.495Z,2.03
2023-01-13T22:08:15.307Z,1.55
2023-01-13T22:10:58.244Z,1.58
2023-01-13T22:13:45.859Z,1.60
2023-01-13T22:16:14.594Z,1.50
2023-01-13T22:18:42.382Z,1.42
2023-01-13T22:21:11.270Z,1.30
2023-01-13T22:23:39.180Z,0.70
2023-01-13T22:26:07.520Z,1.40
2023-01-13T22:28:40.994Z,1.10
2023-01-13T22:31:15.673Z,1.65
2023-01-13T22:33:43.640Z,1.75
2023-01-13T22:36:11.569Z,2.92
2023-01-13T22:38:39.453Z,1.90
2023-01-13T22:41:08.291Z,1.80
2023-01-13T22:43:36.783Z,1.52
2023-01-13T22:46:07.393Z,1.48
2023-01-13T22:48:35.372Z,1.58
2023-01-13T22:51:10.386Z,1.50
2023-01-13T22:53:38.477Z,1.70
2023-01-13T22:56:06.647Z,1.73
2023-01-13T22:58:34.572Z,1.50
2023-01-13T23:01:10.223Z,1.88
2023-01-13T23:03:38.047Z,1.70
2023-01-13T23:06:06.417Z,1.98
2023-01-13T23:08:34.630Z,3.00
2023-01-13T23:11:03.783Z,3.28
2023-01-13T23:13:31.611Z,3.03
2023-01-13T23:16:04.174Z,2.55
2023-01-13T23:21:10.830Z,2.00
2023-01-13T23:23:38.829Z,2.63
2023-01-13T23:26:07.541Z,3.20
2023-01-13T23:28:35.792Z,2.55
2023-01-13T23:31:11.309Z,2.65
2023-01-13T23:33:41.573Z,2.60
2023-01-13T23:36:13.397Z,1.77
2023-01-13T23:38:41.696Z,1.35
2023-01-13T23:41:10.610Z,1.70
2023-01-13T23:43:38.507Z,1.63
2023-01-13T23:46:08.220Z,0.80
2023-01-13T23:48:36.250Z,1.88
2023-01-13T23:51:06.132Z,1.38
2023-01-13T23:53:40.209Z,1.92
2023-01-13T23:56:11.467Z,1.42
2023-01-13T23:58:39.152Z,2.13
